createdAt,value
2023-05-05T00:02:19.843Z,61.91
2023-05-05T00:04:47.029Z,61.91
2023-05-05T00:07:15.576Z,61.82
2023-05-05T00:09:43.278Z,61.68
2023-05-05T00:12:10.431Z,61.90
2023-05-05T00:14:37.589Z,61.89
2023-05-05T00:17:05.600Z,61.97
2023-05-05T00:19:32.714Z,62.06
2023-05-05T00:21:59.858Z,62.31
2023-05-05T00:24:27.432Z,62.37
2023-05-05T00:26:54.491Z,62.45
2023-05-05T00:29:21.931Z,62.45
2023-05-05T00:31:52.148Z,62.72
2023-05-05T00:34:20.338Z,62.82
2023-05-05T00:36:47.589Z,62.60
2023-05-05T00:39:15.362Z,62.74
2023-05-05T00:41:42.836Z,62.87
2023-05-05T00:44:09.974Z,63.01
2023-05-05T00:46:37.786Z,63.01
2023-05-05T00:49:05.006Z,63.17
2023-05-05T00:51:32.251Z,63.48
2023-05-05T00:53:59.405Z,63.67
2023-05-05T00:56:27.602Z,63.84
2023-05-05T00:58:54.945Z,64.16
2023-05-05T01:01:22.120Z,64.38
2023-05-05T01:03:49.315Z,64.56
2023-05-05T01:06:37.590Z,64.66
2023-05-05T01:09:17.348Z,64.73
2023-05-05T01:12:11.330Z,65.05
2023-05-05T01:14:47.484Z,65.19
2023-05-05T01:17:17.579Z,65.45
2023-05-05T01:19:48.853Z,65.62
2023-05-05T01:22:15.910Z,65.69
2023-05-05T01:25:04.677Z,65.98
2023-05-05T01:27:47.993Z,66.22
2023-05-05T01:31:03.587Z,66.31
2023-05-05T01:33:36.162Z,66.54
2023-05-05T01:36:05.974Z,66.72
2023-05-05T01:38:37.325Z,66.96
2023-05-05T01:41:08.058Z,66.75
2023-05-05T01:43:35.523Z,66.76
2023-05-05T01:46:02.839Z,66.86
2023-05-05T01:48:30.338Z,67.04
2023-05-05T01:50:57.490Z,67.19
2023-05-05T01:53:24.952Z,67.29
2023-05-05T01:55:52.413Z,67.37
2023-05-05T01:58:19.566Z,67.55
2023-05-05T02:00:46.723Z,67.37
2023-05-05T02:03:14.006Z,67.31
2023-05-05T02:05:41.235Z,67.20
2023-05-05T02:08:10.321Z,67.32
2023-05-05T02:10:38.919Z,67.13
2023-05-05T02:13:06.194Z,66.85
2023-05-05T02:15:34.069Z,66.68
2023-05-05T02:18:01.703Z,66.63
2023-05-05T02:20:28.882Z,66.70
2023-05-05T02:22:56.014Z,66.70
2023-05-05T02:25:24.189Z,66.85
2023-05-05T02:27:51.346Z,66.92
2023-05-05T02:30:18.709Z,66.98
2023-05-05T02:32:53.788Z,67.01
2023-05-05T02:35:23.587Z,67.17
2023-05-05T02:38:00.166Z,67.46
2023-05-05T02:40:28.206Z,67.85
2023-05-05T02:42:56.644Z,68.21
2023-05-05T02:45:27.634Z,68.82
2023-05-05T02:47:54.838Z,69.35
2023-05-05T02:50:22.160Z,70.08
2023-05-05T02:52:55.849Z,70.57
2023-05-05T02:55:23.308Z,71.04
2023-05-05T02:58:08.487Z,71.34
2023-05-05T03:00:47.824Z,71.79
2023-05-05T03:03:41.308Z,72.14
2023-05-05T03:06:15.277Z,72.24
2023-05-05T03:08:46.763Z,72.66
2023-05-05T03:11:36.459Z,72.87
2023-05-05T03:14:09.148Z,73.27
2023-05-05T03:16:37.163Z,73.10
2023-05-05T03:19:05.173Z,73.11
2023-05-05T03:21:32.945Z,73.30
2023-05-05T03:24:00.327Z,73.27
2023-05-05T03:26:27.551Z,73.35
2023-05-05T03:28:55.219Z,73.38
2023-05-05T03:31:28.770Z,73.47
2023-05-05T03:33:58.343Z,73.48
2023-05-05T03:36:29.394Z,73.50
2023-05-05T03:38:58.383Z,73.27
2023-05-05T03:41:26.369Z,73.28
2023-05-05T03:43:53.804Z,73.49
2023-05-05T03:46:20.992Z,73.82
2023-05-05T03:48:48.931Z,73.78
2023-05-05T03:51:16.536Z,73.49
2023-05-05T03:53:44.056Z,73.38
2023-05-05T03:56:11.416Z,73.32
2023-05-05T03:58:38.776Z,73.48
2023-05-05T04:01:06.028Z,73.67
2023-05-05T04:03:33.272Z,73.70
2023-05-05T04:06:01.464Z,73.65
2023-05-05T04:08:29.235Z,73.82
2023-05-05T04:10:57.728Z,73.71
2023-05-05T04:13:25.079Z,73.85
2023-05-05T04:15:52.727Z,73.85
2023-05-05T04:18:20.200Z,73.56
2023-05-05T04:20:47.560Z,73.62
2023-05-05T04:23:14.918Z,73.64
2023-05-05T04:25:42.390Z,73.33
2023-05-05T04:28:09.981Z,73.23
2023-05-05T04:30:37.669Z,73.09
2023-05-05T04:33:05.085Z,73.03
2023-05-05T04:35:33.655Z,73.06
2023-05-05T04:38:01.424Z,72.79
2023-05-05T04:40:28.983Z,72.53
2023-05-05T04:42:56.546Z,72.73
2023-05-05T04:45:24.211Z,72.78
2023-05-05T04:47:51.838Z,72.83
2023-05-05T04:50:19.237Z,72.85
2023-05-05T04:52:46.399Z,72.83
2023-05-05T04:55:13.640Z,72.45
2023-05-05T04:57:41.002Z,72.59
2023-05-05T05:00:09.919Z,72.32
2023-05-05T05:02:37.994Z,72.18
2023-05-05T05:05:05.682Z,72.02
2023-05-05T05:07:33.630Z,71.51
2023-05-05T05:10:02.402Z,71.10
2023-05-05T05:12:29.589Z,70.80
2023-05-05T05:14:57.013Z,70.78
2023-05-05T05:17:25.231Z,71.09
2023-05-05T05:19:52.652Z,70.87
2023-05-05T05:22:19.913Z,70.71
2023-05-05T05:24:47.669Z,70.56
2023-05-05T05:27:14.832Z,70.51
2023-05-05T05:29:44.146Z,70.63
2023-05-05T05:32:11.712Z,70.58
2023-05-05T05:34:39.253Z,70.32
2023-05-05T05:37:07.329Z,70.36
2023-05-05T05:39:34.484Z,70.33
2023-05-05T05:42:03.068Z,70.47
2023-05-05T05:44:30.732Z,69.87
2023-05-05T05:46:57.891Z,69.83
2023-05-05T05:49:25.247Z,69.97
2023-05-05T05:51:52.601Z,69.68
2023-05-05T05:54:19.714Z,69.62
2023-05-05T05:56:46.909Z,69.35
2023-05-05T05:59:14.178Z,69.16
2023-05-05T06:01:41.731Z,69.31
2023-05-05T06:04:09.297Z,68.80
2023-05-05T06:06:38.080Z,68.19
2023-05-05T06:09:05.666Z,68.11
2023-05-05T06:11:35.254Z,67.53
2023-05-05T06:14:02.711Z,67.49
2023-05-05T06:16:30.179Z,67.60
2023-05-05T06:18:58.056Z,67.59
2023-05-05T06:21:25.299Z,67.29
2023-05-05T06:23:52.461Z,67.62
2023-05-05T06:26:19.908Z,67.13
2023-05-05T06:28:47.065Z,66.14
2023-05-05T06:31:14.682Z,66.31
2023-05-05T06:33:41.990Z,66.33
2023-05-05T06:36:09.493Z,64.79
2023-05-05T06:38:38.041Z,64.33
2023-05-05T06:41:05.706Z,63.78
2023-05-05T06:43:32.960Z,63.16
2023-05-05T06:46:01.678Z,62.99
2023-05-05T06:48:28.793Z,62.85
2023-05-05T06:50:56.773Z,63.43
2023-05-05T06:53:23.916Z,62.49
2023-05-05T06:55:51.270Z,62.51
2023-05-05T06:58:18.435Z,62.14
2023-05-05T07:00:45.595Z,61.22
2023-05-05T07:03:13.006Z,60.71
2023-05-05T07:05:40.290Z,60.89
2023-05-05T07:08:09.283Z,60.85
2023-05-05T07:10:36.641Z,60.55
2023-05-05T07:13:03.765Z,60.13
2023-05-05T07:15:31.460Z,58.88
2023-05-05T07:17:58.811Z,59.98
2023-05-05T07:20:26.173Z,59.17
2023-05-05T07:24:27.233Z,58.97
2023-05-05T07:26:54.385Z,57.73
2023-05-05T07:29:21.542Z,55.56
2023-05-05T07:31:48.693Z,54.39
2023-05-05T07:34:15.954Z,51.07
2023-05-05T07:36:43.096Z,50.04
2023-05-05T07:39:10.374Z,49.87
2023-05-05T07:41:37.623Z,46.61
2023-05-05T07:44:04.863Z,46.04
2023-05-05T07:46:32.082Z,46.31
2023-05-05T07:48:59.270Z,46.51
2023-05-05T07:51:26.932Z,46.60
2023-05-05T07:53:54.598Z,47.26
2023-05-05T07:56:21.973Z,48.28
2023-05-05T07:58:49.219Z,48.32
2023-05-05T08:01:17.086Z,48.62
2023-05-05T08:03:44.393Z,48.68
2023-05-05T08:06:11.591Z,47.49
2023-05-05T08:08:38.745Z,46.66
2023-05-05T08:11:06.952Z,46.30
2023-05-05T08:13:34.584Z,46.33
2023-05-05T08:16:01.823Z,46.81
2023-05-05T08:18:29.202Z,47.04
2023-05-05T08:20:56.863Z,46.75
2023-05-05T08:23:23.977Z,47.44
2023-05-05T08:25:52.597Z,47.44
2023-05-05T08:28:19.873Z,47.13
2023-05-05T08:30:47.439Z,46.73
2023-05-05T08:33:14.596Z,47.29
2023-05-05T08:35:42.816Z,47.46
2023-05-05T08:38:11.108Z,47.30
2023-05-05T08:40:39.434Z,44.77
2023-05-05T08:43:06.553Z,43.69
2023-05-05T08:45:33.703Z,42.94
2023-05-05T08:48:02.235Z,44.39
2023-05-05T08:50:29.545Z,44.23
2023-05-05T08:53:10.837Z,42.63
2023-05-05T08:55:56.305Z,41.60
2023-05-05T08:58:23.666Z,41.67
2023-05-05T09:00:51.272Z,42.72
2023-05-05T09:03:18.789Z,42.28
2023-05-05T09:05:46.243Z,42.19
2023-05-05T09:08:13.608Z,42.25
2023-05-05T09:10:41.278Z,41.07
2023-05-05T09:13:08.550Z,40.68
2023-05-05T09:15:35.763Z,41.24
2023-05-05T09:18:03.947Z,40.91
2023-05-05T09:20:35.848Z,40.59
2023-05-05T09:23:19.605Z,40.48
2023-05-05T09:25:48.500Z,40.12
2023-05-05T09:28:16.960Z,39.90
2023-05-05T09:30:46.378Z,39.82
2023-05-05T09:33:13.810Z,40.14
2023-05-05T09:35:51.487Z,39.42
2023-05-05T09:38:24.513Z,38.30
2023-05-05T09:40:52.989Z,37.17
2023-05-05T09:43:22.466Z,37.31
2023-05-05T09:45:50.149Z,37.35
2023-05-05T09:48:43.810Z,38.15
2023-05-05T09:51:10.949Z,37.63
2023-05-05T09:53:42.208Z,37.40
2023-05-05T09:56:09.473Z,35.60
2023-05-05T09:58:36.645Z,35.01
2023-05-05T10:01:03.810Z,35.15
2023-05-05T10:03:31.324Z,35.14
2023-05-05T10:05:59.803Z,36.00
2023-05-05T10:08:31.672Z,34.80
2023-05-05T10:11:01.187Z,33.39
2023-05-05T10:13:28.324Z,32.39
2023-05-05T10:15:56.727Z,32.54
2023-05-05T10:18:25.269Z,32.27
2023-05-05T10:20:58.627Z,32.72
2023-05-05T10:23:40.274Z,33.15
2023-05-05T10:26:08.190Z,33.38
2023-05-05T10:28:44.931Z,33.47
2023-05-05T10:31:25.841Z,32.66
2023-05-05T10:34:04.270Z,32.05
2023-05-05T10:36:32.093Z,31.38
2023-05-05T10:38:59.441Z,31.08
2023-05-05T10:41:29.461Z,30.22
2023-05-05T10:44:02.872Z,30.65
2023-05-05T10:46:31.683Z,29.72
2023-05-05T10:49:18.366Z,29.21
2023-05-05T10:51:54.724Z,28.98
2023-05-05T10:54:30.628Z,27.63
2023-05-05T10:56:58.664Z,28.19
2023-05-05T10:59:38.225Z,27.70
2023-05-05T11:02:24.874Z,27.30
2023-05-05T11:05:14.552Z,26.70
2023-05-05T11:07:42.455Z,27.01
2023-05-05T11:10:13.846Z,26.25
2023-05-05T11:13:00.308Z,26.02
2023-05-05T11:15:27.663Z,26.30
2023-05-05T11:17:55.941Z,26.46
2023-05-05T11:20:36.202Z,26.27
2023-05-05T11:23:03.439Z,26.12
2023-05-05T11:25:39.423Z,25.90
2023-05-05T11:28:21.215Z,26.05
2023-05-05T11:31:00.608Z,25.45
2023-05-05T11:33:30.970Z,26.17
2023-05-05T11:35:58.667Z,25.99
2023-05-05T11:38:41.464Z,25.85
2023-05-05T11:41:14.229Z,25.30
2023-05-05T11:43:44.149Z,26.10
2023-05-05T11:46:15.715Z,27.38
2023-05-05T11:48:48.786Z,26.75
2023-05-05T11:51:16.772Z,26.08
2023-05-05T11:53:44.577Z,25.88
2023-05-05T11:56:12.207Z,26.32
2023-05-05T11:58:39.445Z,25.85
2023-05-05T12:01:07.514Z,25.64
2023-05-05T12:03:38.296Z,25.68
2023-05-05T12:06:06.323Z,25.02
2023-05-05T12:08:39.702Z,24.73
2023-05-05T12:11:08.210Z,23.64
2023-05-05T12:13:35.655Z,23.16
2023-05-05T12:16:13.147Z,23.16
2023-05-05T12:18:41.022Z,24.01
2023-05-05T12:21:17.842Z,24.50
2023-05-05T12:23:45.147Z,24.59
2023-05-05T12:26:29.244Z,24.33
2023-05-05T12:28:59.882Z,24.74
2023-05-05T12:31:36.442Z,25.32
2023-05-05T12:34:04.497Z,25.50
2023-05-05T12:36:35.909Z,25.40
2023-05-05T12:39:05.458Z,25.62
2023-05-05T12:41:33.314Z,26.11
2023-05-05T12:44:03.522Z,25.26
2023-05-05T12:46:32.239Z,24.47
2023-05-05T12:49:05.235Z,23.44
2023-05-05T12:51:33.372Z,22.81
2023-05-05T12:54:04.615Z,23.35
2023-05-05T12:56:41.586Z,22.81
2023-05-05T12:59:21.277Z,22.33
2023-05-05T13:01:49.306Z,22.36
2023-05-05T13:04:16.974Z,22.80
2023-05-05T13:06:46.201Z,22.72
2023-05-05T13:09:24.404Z,21.99
2023-05-05T13:11:51.841Z,22.17
2023-05-05T13:14:18.993Z,22.87
2023-05-05T13:16:46.163Z,23.44
2023-05-05T13:19:13.398Z,23.61
2023-05-05T13:21:40.459Z,23.74
2023-05-05T13:24:25.371Z,23.57
2023-05-05T13:26:56.149Z,23.97
2023-05-05T13:29:26.109Z,23.72
2023-05-05T13:31:55.782Z,23.63
2023-05-05T13:34:23.040Z,24.04
2023-05-05T13:36:50.492Z,24.59
2023-05-05T13:39:17.647Z,24.65
2023-05-05T13:41:45.504Z,25.20
2023-05-05T13:44:14.185Z,25.29
2023-05-05T13:46:42.852Z,25.86
2023-05-05T13:49:10.030Z,26.20
2023-05-05T13:51:38.621Z,26.56
2023-05-05T13:54:06.793Z,26.32
2023-05-05T13:56:34.762Z,26.80
2023-05-05T13:59:02.720Z,26.74
2023-05-05T14:01:30.455Z,27.05
2023-05-05T14:03:58.163Z,27.59
2023-05-05T14:06:26.379Z,27.49
2023-05-05T14:08:53.888Z,27.83
2023-05-05T14:11:21.656Z,27.40
2023-05-05T14:13:49.138Z,26.94
2023-05-05T14:16:16.316Z,27.16
2023-05-05T14:18:43.527Z,27.68
2023-05-05T14:21:10.862Z,27.95
2023-05-05T14:23:38.022Z,27.44
2023-05-05T14:26:05.288Z,27.34
2023-05-05T14:28:32.450Z,26.73
2023-05-05T14:30:59.577Z,25.86
2023-05-05T14:33:26.740Z,26.17
2023-05-05T14:35:53.917Z,26.24
2023-05-05T14:38:21.102Z,25.94
2023-05-05T14:40:48.486Z,25.57
2023-05-05T14:43:15.736Z,24.68
2023-05-05T14:45:44.409Z,24.80
2023-05-05T14:48:11.691Z,25.08
2023-05-05T14:50:42.734Z,25.53
2023-05-05T14:53:09.874Z,25.86
2023-05-05T14:55:37.415Z,25.69
2023-05-05T14:58:04.586Z,25.85
2023-05-05T15:00:31.735Z,26.39
2023-05-05T15:02:58.936Z,26.05
2023-05-05T15:05:26.144Z,26.46
2023-05-05T15:07:53.293Z,27.38
2023-05-05T15:10:21.976Z,27.58
2023-05-05T15:12:49.707Z,27.80
2023-05-05T15:15:17.201Z,27.95
2023-05-05T15:17:44.359Z,28.69
2023-05-05T15:20:12.117Z,30.14
2023-05-05T15:22:39.277Z,29.54
2023-05-05T15:25:11.108Z,29.78
2023-05-05T15:27:39.806Z,29.08
2023-05-05T15:30:09.117Z,29.67
2023-05-05T15:32:36.411Z,29.77
2023-05-05T15:35:03.743Z,29.46
2023-05-05T15:37:30.891Z,29.43
2023-05-05T15:39:58.021Z,29.89
2023-05-05T15:42:25.172Z,31.01
2023-05-05T15:44:52.457Z,31.34
2023-05-05T15:47:19.688Z,31.46
2023-05-05T15:49:46.829Z,32.09
2023-05-05T15:52:14.291Z,32.25
2023-05-05T15:54:41.754Z,32.50
2023-05-05T15:57:11.658Z,32.58
2023-05-05T15:59:38.822Z,32.27
2023-05-05T16:02:06.207Z,32.56
2023-05-05T16:04:33.633Z,33.48
2023-05-05T16:07:01.701Z,32.89
2023-05-05T16:09:29.053Z,32.95
2023-05-05T16:11:56.200Z,32.47
2023-05-05T16:14:23.349Z,32.92
2023-05-05T16:16:50.526Z,33.51
2023-05-05T16:19:18.478Z,33.25
2023-05-05T16:21:45.929Z,34.20
2023-05-05T16:24:16.719Z,33.87
2023-05-05T16:26:44.234Z,34.35
2023-05-05T16:29:11.479Z,34.07
2023-05-05T16:31:38.970Z,34.47
2023-05-05T16:34:06.294Z,34.45
2023-05-05T16:36:33.461Z,34.60
2023-05-05T16:39:00.805Z,35.03
2023-05-05T16:41:28.081Z,35.37
2023-05-05T16:43:55.723Z,35.68
2023-05-05T16:46:22.891Z,35.72
2023-05-05T16:48:50.021Z,35.85
2023-05-05T16:51:17.264Z,35.60
2023-05-05T16:53:44.421Z,36.11
2023-05-05T16:56:13.008Z,36.29
2023-05-05T16:58:40.566Z,36.06
2023-05-05T17:01:07.725Z,35.98
2023-05-05T17:03:34.990Z,36.57
2023-05-05T17:06:02.168Z,37.18
2023-05-05T17:08:29.372Z,37.21
2023-05-05T17:10:56.524Z,37.32
2023-05-05T17:13:23.780Z,37.92
2023-05-05T17:15:51.682Z,38.30
2023-05-05T17:18:22.074Z,38.21
2023-05-05T17:20:49.739Z,38.63
2023-05-05T17:23:16.895Z,39.02
2023-05-05T17:25:44.145Z,39.15
2023-05-05T17:28:11.499Z,39.41
2023-05-05T17:30:38.649Z,39.79
2023-05-05T17:33:06.079Z,40.29
2023-05-05T17:35:33.281Z,40.65
2023-05-05T17:38:00.522Z,40.98
2023-05-05T17:40:27.686Z,41.17
2023-05-05T17:42:54.929Z,40.83
2023-05-05T17:45:22.079Z,41.02
2023-05-05T17:47:49.204Z,40.88
2023-05-05T17:50:17.809Z,41.22
2023-05-05T17:52:46.701Z,41.51
2023-05-05T17:55:13.864Z,41.63
2023-05-05T17:57:41.114Z,41.53
2023-05-05T18:00:09.501Z,41.85
2023-05-05T18:02:42.645Z,42.61
2023-05-05T18:05:11.061Z,42.01
2023-05-05T18:07:38.933Z,41.89
2023-05-05T18:10:11.022Z,42.35
2023-05-05T18:12:38.193Z,42.99
2023-05-05T18:15:06.024Z,43.13
2023-05-05T18:17:33.178Z,43.36
2023-05-05T18:20:00.328Z,43.39
2023-05-05T18:22:27.581Z,43.60
2023-05-05T18:24:59.246Z,44.01
2023-05-05T18:27:28.454Z,43.74
2023-05-05T18:29:55.703Z,43.85
2023-05-05T18:32:23.505Z,44.57
2023-05-05T18:34:50.722Z,44.53
2023-05-05T18:37:17.874Z,44.03
2023-05-05T18:39:45.536Z,43.95
2023-05-05T18:42:13.314Z,44.09
2023-05-05T18:44:40.448Z,44.36
2023-05-05T18:47:08.264Z,44.55
2023-05-05T18:49:35.588Z,44.99
2023-05-05T18:52:02.729Z,45.23
2023-05-05T18:54:29.888Z,45.26
2023-05-05T18:56:57.644Z,45.22
2023-05-05T18:59:24.795Z,45.64
2023-05-05T19:01:52.157Z,45.66
2023-05-05T19:04:30.215Z,45.60
2023-05-05T19:06:59.556Z,45.98
2023-05-05T19:09:26.815Z,45.96
2023-05-05T19:11:55.709Z,45.81
2023-05-05T19:14:22.977Z,45.84
2023-05-05T19:16:50.126Z,46.44
2023-05-05T19:19:17.374Z,46.52
2023-05-05T19:21:44.736Z,46.54
2023-05-05T19:24:12.010Z,46.52
2023-05-05T19:26:39.236Z,46.79
2023-05-05T19:29:06.715Z,46.62
2023-05-05T19:31:33.877Z,46.79
2023-05-05T19:34:02.957Z,46.84
2023-05-05T19:36:33.687Z,47.22
2023-05-05T19:42:02.802Z,47.04
2023-05-05T19:44:29.952Z,47.07
2023-05-05T19:46:57.104Z,47.33
2023-05-05T19:49:24.260Z,47.56
2023-05-05T19:51:52.330Z,47.58
2023-05-05T19:54:19.486Z,47.76
2023-05-05T19:56:46.634Z,47.68
2023-05-05T19:59:13.799Z,47.66
2023-05-05T20:01:40.994Z,47.67
2023-05-05T20:04:08.197Z,47.67
2023-05-05T20:06:36.576Z,47.70
2023-05-05T20:09:04.329Z,47.83
2023-05-05T20:11:31.503Z,48.09
2023-05-05T20:13:58.962Z,48.37
2023-05-05T20:16:26.183Z,48.65
2023-05-05T20:18:53.575Z,49.13
2023-05-05T20:21:22.371Z,49.30
2023-05-05T20:23:49.613Z,49.78
2023-05-05T20:26:17.282Z,50.13
2023-05-05T20:28:45.975Z,50.33
2023-05-05T20:31:14.443Z,50.81
2023-05-05T20:33:41.707Z,50.96
2023-05-05T20:36:08.866Z,51.24
2023-05-05T20:38:36.224Z,51.50
2023-05-05T20:41:03.694Z,51.88
2023-05-05T20:43:30.836Z,51.89
2023-05-05T20:45:58.097Z,52.29
2023-05-05T20:48:25.244Z,52.65
2023-05-05T20:50:52.493Z,52.83
2023-05-05T20:53:21.324Z,53.42
2023-05-05T20:55:49.981Z,53.55
2023-05-05T20:58:17.134Z,53.99
2023-05-05T21:00:44.542Z,54.65
2023-05-05T21:03:12.427Z,55.29
2023-05-05T21:05:41.262Z,55.92
2023-05-05T21:08:08.394Z,56.29
2023-05-05T21:10:36.234Z,56.79
2023-05-05T21:13:03.443Z,56.89
2023-05-05T21:15:30.876Z,57.31
2023-05-05T21:17:58.045Z,57.61
2023-05-05T21:20:25.182Z,58.14
2023-05-05T21:22:52.336Z,58.06
2023-05-05T21:25:20.912Z,58.31
2023-05-05T21:27:48.613Z,58.51
2023-05-05T21:30:16.194Z,58.96
2023-05-05T21:32:44.066Z,59.22
2023-05-05T21:35:11.599Z,59.77
2023-05-05T21:37:41.622Z,60.21
2023-05-05T21:40:13.885Z,60.50
2023-05-05T21:42:42.037Z,60.65
2023-05-05T21:45:11.104Z,61.27
2023-05-05T21:47:38.236Z,62.00
2023-05-05T21:50:06.019Z,62.05
2023-05-05T21:52:33.230Z,62.04
2023-05-05T21:55:00.582Z,62.41
2023-05-05T21:57:27.848Z,62.52
2023-05-05T21:59:54.995Z,62.85
2023-05-05T22:02:22.408Z,63.08
2023-05-05T22:04:52.886Z,63.43
2023-05-05T22:07:20.037Z,63.74
2023-05-05T22:09:47.301Z,63.95
2023-05-05T22:12:14.444Z,64.20
2023-05-05T22:14:41.603Z,64.46
2023-05-05T22:17:08.963Z,64.64
2023-05-05T22:19:36.209Z,64.68
2023-05-05T22:22:03.360Z,64.87
2023-05-05T22:24:30.523Z,65.41
2023-05-05T22:26:58.484Z,66.06
2023-05-05T22:29:25.648Z,66.13
2023-05-05T22:31:52.936Z,66.11
2023-05-05T22:34:22.176Z,66.05
2023-05-05T22:36:49.555Z,66.26
2023-05-05T22:39:18.763Z,66.29
2023-05-05T22:41:46.349Z,66.38
2023-05-05T22:44:13.695Z,66.38
2023-05-05T22:46:41.151Z,66.18
2023-05-05T22:49:08.973Z,66.22
2023-05-05T22:51:36.165Z,66.16
2023-05-05T22:54:03.633Z,65.90
2023-05-05T22:56:30.897Z,65.90
2023-05-05T22:58:58.029Z,66.10
2023-05-05T23:01:25.348Z,66.18
2023-05-05T23:03:52.575Z,66.47
2023-05-05T23:06:19.798Z,66.53
2023-05-05T23:08:46.964Z,66.45
2023-05-05T23:11:14.105Z,66.55
2023-05-05T23:13:41.258Z,66.53
2023-05-05T23:16:08.479Z,66.59
2023-05-05T23:18:36.288Z,66.73
2023-05-05T23:21:03.436Z,66.83
2023-05-05T23:23:31.287Z,67.00
2023-05-05T23:25:58.357Z,66.88
2023-05-05T23:28:25.617Z,66.80
2023-05-05T23:30:52.898Z,66.85
2023-05-05T23:33:20.245Z,66.76
2023-05-05T23:35:47.684Z,66.90
2023-05-05T23:38:14.842Z,66.73
2023-05-05T23:40:41.995Z,66.75
2023-05-05T23:43:09.045Z,66.92
2023-05-05T23:45:36.198Z,66.68
2023-05-05T23:48:03.515Z,66.30
2023-05-05T23:50:31.133Z,66.08
2023-05-05T23:52:58.276Z,66.28
2023-05-05T23:55:25.750Z,66.39
2023-05-05T23:57:53.599Z,66.22
